North Evans, New York
Current Conditions -  °F | °C
As of 3:54 PM on Wednesday 26 Nov 2014 (Local Time) from KBUF Reporting Station
Light Snow Light Snow  
Wind Chill: 24°   Ceiling: 700
Heat Index: 32°   Visibility: 7mi
Dew Point: 29°   Wind: 10mph
Humidity: 88%   Direction: 30°NNE
Pressure: 30.07"   Gusts: NA
Location:  42.7°N, 78.94°W
Report Text: KBUF 262054Z 03009KT 7SM -SN BKN007 BKN015 OVC030 00/M02 A3007 RMK AO2 SLP192 P0000 60003 T00001017 58015
Loading
Personal Weather Stations






























Interactive Weather Map New forecast layout! Learn more

10-Day Weather Forecast

Advertisements
Track Severe Weather on mobile